Terminal Aerodrome Forecast
Issued by NWS Jackson, MS

Home | Current Version | Previous Version | Text Only | Print | Product List | Glossary On
Versions: 1 2 3 4 5 6 7 8 9 10 11 12 13 14 15 16 17
000
FTUS44 KJAN 032300
TAFHBG
TAF
KHBG 032324Z 0400/0424 17009KT P6SM VCSH BKN025
     FM040300 16007KT 6SM BR VCSH OVC015
     FM040500 17005KT 4SM BR OVC007
     FM040700 18004KT 2SM BR OVC003
     FM041000 18002KT 1/4SM FG OVC001
     FM041500 17005KT 2SM BR OVC003
     FM041600 19007KT 4SM BR OVC007
     FM041700 20009KT P6SM OVC015
     FM041800 20010G16KT P6SM VCSH OVC025
     FM042200 19008KT P6SM VCTS OVC040CB=

USA.gov is the U.S. government's official web portal to all federal, state and local government web resources and services.